»·PEaware :: N3TA KHQM-S23

N3TA :: KHQM-S23

FLIGHT INFORMATION

Flight Status: Arrived
Operator: Privately registered:
United States
More flights under this callsign
Pilot: Oliver L. (19934)
Aircraft: CIRRUS VISIONJET
(SF50)
More flights by this aircraft type
Origin: KHQM Bowerman
United States
Destination: S23 Ione Mun
United States
More flights between these airports :: More routes between these airports
Route: HQM J70 SEA J505 ONSET
File this flight plan on PilotEdge
Remarks:
Altitude:
(Current/Filed)
27,000ft
Speed:
(Current/Filed)
300kts
Departed: 05-Jul-20 03:45 PM
Arrived: 05-Jul-20 04:51 PM
Distance/Time
Traveled:
283nm/1:06
Distance/Time
To Go:
Arrived

Flight Plot

Page will automatically refresh every two minutes.

Flight plan parsing failed; only flown route is shown


Map Options




Map Legend


Flown Route
Filed Route
Departure Airport
Arrival Airport
Navaid (VOR, NDB)
Fix

Horizontal Profiles

Position Reports

Time Latitude Longitude Heading Altitude Ground
Speed
05-Jul-20 15:29 46.973345 -123.930684 170 22ft 0kts
05-Jul-20 15:30 46.973345 -123.930684 170 22ft 0kts
05-Jul-20 15:31 46.973345 -123.930684 170 22ft 0kts
05-Jul-20 15:32 46.973345 -123.930684 170 22ft 0kts
05-Jul-20 15:33 46.973345 -123.930684 170 22ft 0kts
05-Jul-20 15:34 46.973345 -123.930684 170 22ft 0kts
05-Jul-20 15:35 46.973344 -123.930683 170 22ft 0kts
05-Jul-20 15:36 46.973633 -123.928566 213 22ft 0kts
05-Jul-20 15:37 46.973347 -123.930684 171 22ft 0kts
05-Jul-20 15:38 46.973347 -123.930684 171 22ft 0kts
05-Jul-20 15:39 46.973117 -123.929345 81 22ft 12kts
05-Jul-20 15:40 46.973105 -123.927348 125 22ft 0kts
05-Jul-20 15:41 46.973105 -123.927348 125 22ft 0kts
05-Jul-20 15:42 46.973105 -123.927348 125 22ft 0kts
05-Jul-20 15:43 46.972410 -123.927100 236 22ft 13kts
05-Jul-20 15:44 46.968644 -123.957353 262 597ft 127kts
05-Jul-20 15:45 46.959181 -124.013885 256 2503ft 180kts
05-Jul-20 15:46 46.951932 -124.093123 262 4535ft 208kts
05-Jul-20 15:47 46.987415 -124.141479 29 6619ft 263kts
05-Jul-20 15:48 46.997261 -124.039284 99 8684ft 275kts
05-Jul-20 15:49 47.008170 -123.929295 70 10697ft 279kts
05-Jul-20 15:50 47.036255 -123.823812 69 12597ft 279kts
05-Jul-20 15:51 47.065247 -123.717022 69 14107ft 284kts
05-Jul-20 15:52 47.094384 -123.609269 69 15611ft 285kts
05-Jul-20 15:53 47.123391 -123.501509 69 17110ft 282kts
05-Jul-20 15:54 47.151938 -123.394957 69 18606ft 278kts
05-Jul-20 15:55 47.179868 -123.290239 70 20097ft 273kts
05-Jul-20 15:56 47.207313 -123.186871 70 21594ft 267kts
05-Jul-20 15:57 47.233885 -123.086373 70 23082ft 261kts
05-Jul-20 15:58 47.259713 -122.988273 70 24570ft 253kts
05-Jul-20 15:59 47.284984 -122.891794 70 25735ft 256kts
05-Jul-20 16:00 47.310850 -122.792681 70 26736ft 262kts
05-Jul-20 16:01 47.337640 -122.689561 70 27186ft 286kts
05-Jul-20 16:02 47.367339 -122.574765 69 27184ft 312kts
05-Jul-20 16:03 47.398970 -122.451866 69 27183ft 325kts
05-Jul-20 16:04 47.431313 -122.325493 70 27182ft 331kts
05-Jul-20 16:05 47.475437 -122.204760 61 27182ft 335kts
05-Jul-20 16:06 47.521171 -122.084638 61 27182ft 336kts
05-Jul-20 16:07 47.567011 -121.963667 61 27182ft 337kts
05-Jul-20 16:08 47.612797 -121.842290 61 27189ft 337kts
05-Jul-20 16:09 47.658406 -121.720827 61 27203ft 337kts
05-Jul-20 16:10 47.703817 -121.599344 61 27208ft 337kts
05-Jul-20 16:11 47.749289 -121.477131 61 27208ft 338kts
05-Jul-20 16:12 47.794531 -121.354960 61 27210ft 338kts
05-Jul-20 16:13 47.839817 -121.232120 62 27209ft 338kts
05-Jul-20 16:14 47.884966 -121.109001 61 27209ft 339kts
05-Jul-20 16:15 47.930172 -120.985093 61 27210ft 342kts
05-Jul-20 16:16 47.976003 -120.859202 60 27145ft 347kts
05-Jul-20 16:17 48.022106 -120.731792 60 27045ft 350kts
05-Jul-20 16:18 48.068280 -120.603522 60 27022ft 349kts
05-Jul-20 16:19 48.114164 -120.475439 60 27021ft 349kts
05-Jul-20 16:20 48.159979 -120.346936 61 27024ft 348kts
05-Jul-20 16:21 48.205388 -120.218941 61 27018ft 348kts
05-Jul-20 16:22 48.250650 -120.090711 61 27019ft 348kts
05-Jul-20 16:23 48.295896 -119.961929 61 27019ft 348kts
05-Jul-20 16:24 48.340803 -119.833478 61 27020ft 348kts
05-Jul-20 16:25 48.385557 -119.704846 61 27021ft 348kts
05-Jul-20 16:26 48.430455 -119.575161 61 27021ft 348kts
05-Jul-20 16:27 48.474930 -119.446028 61 27021ft 348kts
05-Jul-20 16:28 48.518960 -119.317575 62 27019ft 348kts
05-Jul-20 16:29 48.563415 -119.187203 62 27019ft 348kts
05-Jul-20 16:30 48.607559 -119.057080 62 26938ft 351kts
05-Jul-20 16:31 48.653401 -118.921352 62 25950ft 372kts
05-Jul-20 16:32 48.700930 -118.779750 63 24958ft 380kts
05-Jul-20 16:33 48.748822 -118.636263 63 24060ft 380kts
05-Jul-20 16:34 48.795164 -118.496655 63 24075ft 362kts
05-Jul-20 16:35 48.840354 -118.359804 63 23332ft 374kts
05-Jul-20 16:36 48.886421 -118.219546 64 21829ft 372kts
05-Jul-20 16:37 48.925616 -118.099652 64 19856ft 288kts
05-Jul-20 16:38 48.948309 -117.988176 100 17869ft 274kts
05-Jul-20 16:39 48.912234 -117.891380 125 15885ft 260kts
05-Jul-20 16:40 48.873777 -117.800554 124 13882ft 251kts
05-Jul-20 16:41 48.836830 -117.713507 124 11677ft 239kts
05-Jul-20 16:42 48.801725 -117.631089 123 9185ft 229kts
05-Jul-20 16:43 48.767983 -117.552034 123 8712ft 228kts
05-Jul-20 16:44 48.720309 -117.494698 148 6218ft 221kts
05-Jul-20 16:45 48.669033 -117.448478 148 4090ft 202kts
05-Jul-20 16:46 48.629082 -117.407961 116 3991ft 181kts
05-Jul-20 16:47 48.659727 -117.389336 333 2981ft 162kts
05-Jul-20 16:48 48.686975 -117.405743 344 2462ft 83kts
05-Jul-20 16:49 48.706659 -117.412526 348 2111ft 45kts
05-Jul-20 16:50 48.713293 -117.414781 346 2111ft 11kts
05-Jul-20 16:51 48.713884 -117.414481 109 2111ft 0kts
05-Jul-20 16:52 48.713884 -117.414481 109 2111ft 0kts
05-Jul-20 16:53 48.713884 -117.414481 109 2111ft 0kts

Navigation Log

Ident Type
Flight plan parsing failed, navigation log unavailable